Share

Imperial, NE

Searle (KOGA) Elev 3278 ft | 41.12 °N, 101.77 °W | Change Station

Current weather conditions updated 9 minutes ago

Clear
Clear
56 °F
Feels Like 56 °F
N
12
Wind Variable Wind from SSE
Gusts 23 mph
Sunrise 6:04 AM
Sunset 7:27 PM
Moon Waning Gibbous

Tomorrow is forecast to be Much Warmer than today.

Pressure 30.07 in
Visibility 10.0 miles
Clouds Clear
Dew Point 35 °F
Humidity 46%
Rainfall 0.00 in
Snow Depth Not available.
UV 2 out of 16
Pollen 9.10 out of 12
Air Quality Not available.
Flu Activity Sporadic
METAR KOGA 172335Z AUTO 16010G20KT 10SM CLR 13/02 A3007 RMK AO2 T01330018

More Conditions Fewer Conditions

Pressure 30.07 in
Visibility 10.0 miles
Clouds Clear
Dew Point 35 °F
Humidity 46%
Rainfall 0.00 in
Snow Depth Not available.
UV 2 out of 16
Pollen 9.10 out of 12
Air Quality Not available.
Flu Activity Sporadic
METAR KOGA 172335Z AUTO 16010G20KT 10SM CLR 13/02 A3007 RMK AO2 T01330018

More Conditions Fewer Conditions

10-Day Forecast

Almanac

Astronomy

Apr. 17, 2014 Rise Set
Actual Time 6:04 AM MDT 7:27 PM MDT
Civil Twilight 5:36 AM MDT 7:56 PM MDT
Nautical Twilight 5:02 AM MDT 8:30 PM MDT
Astronomical Twilight 4:26 AM MDT 9:06 PM MDT
Moon 10:16 PM MDT 7:37 AM MDT
Length of Visible Light 14h 19m
Length of Day
13h 22m
Tomorrow will be 2m 31s longer.
Waning Gibbous, 92% of the Moon is Illuminated
Today
Waning Gibbous
Apr 22
Last Quarter
Apr 29
New
May 6
First Quarter
May 14
Full

Today's Extremes

State Highs State Lows

Community

  • Morning Light
    Morning Light
  • New Day
    New Day
  • Lake Michigan Sunrise
    Lake Michigan Sunrise
  • sunset from izmir, narlıdere
    sunset from izmir, narlıdere
  • oregon cherry
    oregon cherry

WunderPhotos

Upload Photos

1,702,176 photos uploaded!

WunderBlogs® & News

Nearby

Snow Depth

Station Depth Elevation
No new snow has been reported.

Coastal Water Temperatures

Place Temperature
No Stations Reporting

Earthquake Activity

City Distance Mag. Time & Date
No recent earthquake activity has been reported nearby.
Minimum magnitude displayed is 2.5.

Nearby Weather Stations

There are no personal weather stations in this area.

What do you think?

We're not finished. Please let us know what you like, what you don't like, and what you are still missing.